Impacts TAF Board INFO
FOR SITUATIONAL AWARENESS. NOT TO BE USED FOR FLIGHT PLANNING PURPOSES.
IDs:

KLAS - Las Vegas/McCarran I, NV, US

Issued at 1733 UTC 25 Apr 2018
Updated at 2021 UTC 25 Apr 2018
Potential Impact None Slight Moderate High
Time1956Z 25/21Z 25/22Z 25/23Z 26/00Z 26/01Z 26/02Z 26/03Z 26/04Z 26/05Z 26/06Z 26/07Z 26/08Z 26/09Z>>
Type OBS PRVL PRVL PRVL PRVL PRVL PRVL PRVL PRVL PRVL PRVL PRVL PRVL PRVL
VIS 10 >6 >6 >6 >6 >6 >6 >6 >6 >6 >6 >6 >6 >6
CIG -- -- -- -- -- -- -- -- -- -- -- -- -- --
Cover FEW FEW FEW FEW FEW FEW FEW FEW FEW FEW FEW FEW FEW FEW
FltCat VFR VFR VFR VFR VFR VFR VFR VFR VFR VFR VFR VFR VFR VFR
WX -- -- -- -- -- -- -- -- -- -- -- -- -- --
WDir 50 50 50 50 50 50 50 50 50 210 210 210 210 210
WSpd 7 6 6 6 6 6 6 6 6 7 7 7 7 7
WGst -- -- -- -- -- -- -- -- -- -- -- -- -- --

Raw TAF
KLAS 251733Z 2518/2624 05006KT P6SM FEW250
  TEMPO 2518/2520 04008G14KT
  FM260500 21007KT P6SM FEW250
  FM261200 VRB05KT P6SM FEW250
  FM261700 05005KT P6SM FEW250


Raw METAR
KLAS 251956Z COR 05007KT 10SM FEW250 31/M05 A3002 RMK AO2 SLP140 T03061050
KLAS 251856Z 03008KT 10SM FEW250 30/M05 A3005 RMK AO2 SLP150 T03001050
KLAS 251756Z 05009KT 10SM FEW250 28/M06 A3006 RMK AO2 SLP157 T02831056 10283 20217 58002

METAR Board
Radar Display
Forecast Discussion

FOR SITUATIONAL AWARENESS. NOT TO BE USED FOR FLIGHT PLANNING PURPOSES.